createdAt,value
2019-02-28T00:01:03.914Z,6.62
2019-02-28T00:03:33.124Z,6.54
2019-02-28T00:06:02.166Z,6.47
2019-02-28T00:08:31.209Z,6.42
2019-02-28T00:11:02.107Z,6.44
2019-02-28T00:13:31.448Z,6.51
2019-02-28T00:16:03.378Z,6.51
2019-02-28T00:18:31.996Z,6.41
2019-02-28T00:21:05.787Z,6.38
2019-02-28T00:23:32.075Z,6.31
2019-02-28T00:26:01.462Z,6.32
2019-02-28T00:28:30.545Z,6.27
2019-02-28T00:30:59.575Z,6.30
2019-02-28T00:33:30.819Z,6.28
2019-02-28T00:36:00.091Z,6.31
2019-02-28T00:38:29.669Z,6.30
2019-02-28T00:40:59.468Z,6.26
2019-02-28T00:43:28.489Z,6.22
2019-02-28T00:45:57.490Z,6.13
2019-02-28T00:48:26.520Z,6.02
2019-02-28T00:50:58.457Z,5.93
2019-02-28T00:53:26.309Z,5.91
2019-02-28T00:55:55.322Z,5.93
2019-02-28T00:58:28.634Z,5.96
2019-02-28T01:00:55.164Z,6.09
2019-02-28T01:03:27.307Z,6.19
2019-02-28T01:05:55.356Z,6.27
2019-02-28T01:08:24.402Z,6.59
2019-02-28T01:10:53.473Z,6.46
2019-02-28T01:13:27.316Z,6.23
2019-02-28T01:15:53.301Z,6.37
2019-02-28T01:18:22.350Z,6.44
2019-02-28T01:20:51.403Z,6.40
2019-02-28T01:23:20.484Z,6.27
2019-02-28T01:25:49.511Z,6.17
2019-02-28T01:28:18.560Z,6.23
2019-02-28T01:30:47.628Z,6.36
2019-02-28T01:33:16.636Z,6.33
2019-02-28T01:35:45.671Z,6.32
2019-02-28T01:38:14.864Z,6.36
2019-02-28T01:40:44.919Z,6.45
2019-02-28T01:43:14.280Z,6.42
2019-02-28T01:45:44.286Z,6.48
2019-02-28T01:48:13.427Z,6.55
2019-02-28T01:50:42.459Z,6.58
2019-02-28T01:53:11.549Z,6.72
2019-02-28T01:55:40.612Z,6.75
2019-02-28T01:58:09.995Z,6.69
2019-02-28T02:00:39.039Z,6.51
2019-02-28T02:03:09.486Z,6.37
2019-02-28T02:05:39.255Z,6.18
2019-02-28T02:08:08.377Z,6.01
2019-02-28T02:10:37.411Z,5.89
2019-02-28T02:13:06.905Z,6.29
2019-02-28T02:15:36.215Z,6.22
2019-02-28T02:18:06.311Z,6.33
2019-02-28T02:20:36.505Z,6.24
2019-02-28T02:23:05.869Z,6.26
2019-02-28T02:25:37.597Z,6.21
2019-02-28T02:28:06.185Z,6.13
2019-02-28T02:30:35.301Z,5.98
2019-02-28T02:33:05.010Z,5.76
2019-02-28T02:35:34.015Z,5.55
2019-02-28T02:38:04.723Z,5.34
2019-02-28T02:40:33.892Z,5.27
2019-02-28T02:43:03.137Z,5.21
2019-02-28T02:45:32.531Z,5.11
2019-02-28T02:48:05.331Z,5.07
2019-02-28T02:50:35.871Z,5.06
2019-02-28T02:53:05.530Z,5.13
2019-02-28T02:55:34.135Z,5.11
2019-02-28T02:58:03.167Z,5.10
2019-02-28T03:00:32.203Z,5.22
2019-02-28T03:03:05.320Z,5.14
2019-02-28T03:05:35.690Z,5.16
2019-02-28T03:08:03.267Z,4.87
2019-02-28T03:10:32.344Z,4.81
2019-02-28T03:13:04.840Z,4.79
2019-02-28T03:15:32.506Z,4.71
2019-02-28T03:18:01.559Z,4.69
2019-02-28T03:20:30.914Z,4.62
2019-02-28T03:23:02.217Z,4.64
2019-02-28T03:25:31.118Z,4.55
2019-02-28T03:28:00.486Z,4.54
2019-02-28T03:30:32.951Z,4.39
2019-02-28T03:33:00.679Z,4.27
2019-02-28T03:35:40.146Z,4.18
2019-02-28T03:38:00.528Z,4.13
2019-02-28T03:40:29.598Z,4.11
2019-02-28T03:43:05.542Z,4.14
2019-02-28T03:45:33.827Z,4.09
2019-02-28T03:48:00.141Z,4.10
2019-02-28T03:50:29.198Z,4.18
2019-02-28T03:52:58.498Z,4.35
2019-02-28T03:55:27.852Z,4.47
2019-02-28T03:58:04.400Z,4.49
2019-02-28T04:00:32.391Z,4.43
2019-02-28T04:02:59.169Z,4.36
2019-02-28T04:05:28.630Z,4.42
2019-02-28T04:07:57.996Z,4.39
2019-02-28T04:10:27.165Z,4.34
2019-02-28T04:12:56.244Z,4.39
2019-02-28T04:15:25.601Z,4.41
2019-02-28T04:17:54.678Z,4.44
2019-02-28T04:20:24.003Z,4.43
2019-02-28T04:22:58.802Z,4.38
2019-02-28T04:25:24.567Z,4.36
2019-02-28T04:27:53.668Z,4.30
2019-02-28T04:30:23.101Z,4.34
2019-02-28T04:32:52.506Z,4.40
2019-02-28T04:35:25.304Z,4.45
2019-02-28T04:37:52.370Z,4.47
2019-02-28T04:40:24.003Z,4.42
2019-02-28T04:42:52.900Z,4.45
2019-02-28T04:45:23.354Z,4.51
2019-02-28T04:47:53.047Z,4.62
2019-02-28T04:50:22.469Z,4.64
2019-02-28T04:52:51.923Z,4.67
2019-02-28T04:55:21.412Z,4.74
2019-02-28T04:57:51.681Z,4.77
2019-02-28T05:00:21.294Z,4.84
2019-02-28T05:02:53.783Z,4.90
2019-02-28T05:05:21.553Z,5.05
2019-02-28T05:07:50.866Z,5.07
2019-02-28T05:10:22.379Z,5.10
2019-02-28T05:12:51.027Z,5.33
2019-02-28T05:15:20.077Z,5.38
2019-02-28T05:17:49.087Z,5.38
2019-02-28T05:20:18.382Z,5.36
2019-02-28T05:22:47.434Z,5.39
2019-02-28T05:25:18.666Z,5.34
2019-02-28T05:27:47.719Z,5.37
2019-02-28T05:30:19.298Z,5.40
2019-02-28T05:32:47.976Z,5.62
2019-02-28T05:35:17.000Z,5.53
2019-02-28T05:37:48.132Z,5.62
2019-02-28T05:40:17.299Z,5.57
2019-02-28T05:42:46.326Z,5.53
2019-02-28T05:45:15.796Z,5.53
2019-02-28T05:47:47.336Z,5.37
2019-02-28T05:50:17.135Z,5.46
2019-02-28T05:52:46.591Z,5.36
2019-02-28T05:55:15.634Z,5.38
2019-02-28T05:57:45.129Z,5.47
2019-02-28T06:00:15.602Z,5.42
2019-02-28T06:02:45.027Z,5.39
2019-02-28T06:05:14.107Z,5.40
2019-02-28T06:07:43.129Z,5.48
2019-02-28T06:10:12.310Z,5.36
2019-02-28T06:12:43.729Z,5.28
2019-02-28T06:15:12.507Z,5.24
2019-02-28T06:17:41.507Z,5.24
2019-02-28T06:20:10.705Z,5.20
2019-02-28T06:22:39.725Z,5.36
2019-02-28T06:25:09.093Z,5.64
2019-02-28T06:27:41.579Z,5.63
2019-02-28T06:30:09.967Z,5.75
2019-02-28T06:32:39.031Z,5.80
2019-02-28T06:35:08.177Z,5.83
2019-02-28T06:37:38.387Z,5.86
2019-02-28T06:40:10.207Z,5.64
2019-02-28T06:42:39.999Z,5.58
2019-02-28T06:45:11.226Z,5.33
2019-02-28T06:47:40.306Z,5.25
2019-02-28T06:50:13.039Z,5.24
2019-02-28T06:52:41.131Z,5.21
2019-02-28T06:55:14.449Z,5.46
2019-02-28T06:57:43.453Z,5.52
2019-02-28T07:00:13.531Z,5.34
2019-02-28T07:02:43.602Z,5.62
2019-02-28T07:05:12.722Z,5.90
2019-02-28T07:07:42.194Z,5.98
2019-02-28T07:10:12.679Z,6.45
2019-02-28T07:12:42.967Z,6.64
2019-02-28T07:15:12.441Z,6.60
2019-02-28T07:17:42.694Z,6.48
2019-02-28T07:20:13.676Z,6.54
2019-02-28T07:22:42.689Z,6.58
2019-02-28T07:25:12.601Z,6.34
2019-02-28T07:27:43.171Z,6.35
2019-02-28T07:30:18.726Z,6.50
2019-02-28T07:32:45.117Z,6.57
2019-02-28T07:35:14.449Z,6.47
2019-02-28T07:37:43.448Z,6.36
2019-02-28T07:40:16.202Z,6.38
2019-02-28T07:42:43.803Z,6.77
2019-02-28T07:45:13.111Z,6.85
2019-02-28T07:47:42.542Z,6.89
2019-02-28T07:50:11.900Z,7.29
2019-02-28T07:52:40.923Z,7.50
2019-02-28T07:55:10.658Z,7.77
2019-02-28T07:57:39.715Z,7.95
2019-02-28T08:00:18.311Z,8.08
2019-02-28T08:02:45.806Z,8.19
2019-02-28T08:05:15.061Z,8.37
2019-02-28T08:07:50.493Z,8.44
2019-02-28T08:10:16.783Z,8.53
2019-02-28T08:12:46.126Z,8.60
2019-02-28T08:15:20.944Z,8.77
2019-02-28T08:17:48.441Z,8.80
2019-02-28T08:20:18.125Z,8.87
2019-02-28T08:22:47.196Z,8.93
2019-02-28T08:25:16.211Z,9.03
2019-02-28T08:27:45.266Z,9.06
2019-02-28T08:30:19.448Z,9.23
2019-02-28T08:32:49.570Z,9.26
2019-02-28T08:35:18.983Z,9.32
2019-02-28T08:37:48.036Z,9.37
2019-02-28T08:40:18.818Z,9.48
2019-02-28T08:42:49.964Z,9.54
2019-02-28T08:45:19.408Z,9.59
2019-02-28T08:47:48.554Z,9.66
2019-02-28T08:50:20.511Z,9.73
2019-02-28T08:52:51.166Z,9.76
2019-02-28T08:55:28.174Z,9.81
2019-02-28T08:57:55.681Z,9.83
2019-02-28T09:00:22.292Z,9.83
2019-02-28T09:02:52.957Z,9.91
2019-02-28T09:05:27.301Z,9.94
2019-02-28T09:07:54.191Z,10.05
2019-02-28T09:10:23.721Z,10.11
2019-02-28T09:12:52.769Z,10.12
2019-02-28T09:15:22.275Z,10.05
2019-02-28T09:17:51.397Z,10.11
2019-02-28T09:20:20.846Z,10.15
2019-02-28T09:22:50.265Z,10.24
2019-02-28T09:25:22.127Z,10.15
2019-02-28T09:27:50.133Z,10.35
2019-02-28T09:30:26.466Z,10.63
2019-02-28T09:32:57.668Z,10.78
2019-02-28T09:35:26.818Z,11.03
2019-02-28T09:37:56.228Z,11.50
2019-02-28T09:40:29.237Z,12.06
2019-02-28T09:42:56.428Z,12.34
2019-02-28T09:45:25.781Z,12.30
2019-02-28T09:47:55.212Z,12.05
2019-02-28T09:50:25.186Z,11.91
2019-02-28T09:52:54.527Z,11.69
2019-02-28T09:55:23.568Z,11.43
2019-02-28T09:57:54.783Z,11.35
2019-02-28T10:00:24.315Z,11.33
2019-02-28T10:02:53.656Z,11.21
2019-02-28T10:05:22.685Z,11.16
2019-02-28T10:07:52.121Z,11.21
2019-02-28T10:10:22.046Z,11.28
2019-02-28T10:12:51.225Z,11.26
2019-02-28T10:15:20.781Z,11.28
2019-02-28T10:17:49.961Z,11.20
2019-02-28T10:20:26.521Z,11.28
2019-02-28T10:22:52.796Z,11.30
2019-02-28T10:25:21.848Z,11.42
2019-02-28T10:27:51.233Z,11.57
2019-02-28T10:30:31.185Z,11.92
2019-02-28T10:32:52.276Z,13.70
2019-02-28T10:35:21.706Z,15.23
2019-02-28T10:37:51.038Z,15.20
2019-02-28T10:40:22.096Z,16.55
2019-02-28T10:42:51.108Z,17.83
2019-02-28T10:45:20.360Z,19.17
2019-02-28T10:47:49.865Z,19.88
2019-02-28T10:50:20.768Z,21.10
2019-02-28T10:52:49.798Z,20.12
2019-02-28T10:55:19.421Z,18.29
2019-02-28T10:57:50.146Z,18.50
2019-02-28T11:00:25.955Z,16.80
2019-02-28T11:02:57.765Z,15.80
2019-02-28T11:05:29.566Z,15.62
2019-02-28T11:07:58.870Z,15.14
2019-02-28T11:10:36.230Z,14.40
2019-02-28T11:13:06.790Z,14.20
2019-02-28T11:15:35.912Z,13.83
2019-02-28T11:18:09.635Z,13.70
2019-02-28T11:20:36.630Z,13.37
2019-02-28T11:23:07.694Z,13.29
2019-02-28T11:25:37.288Z,13.07
2019-02-28T11:28:06.888Z,13.09
2019-02-28T11:30:36.336Z,13.19
2019-02-28T11:33:06.454Z,13.71
2019-02-28T11:35:35.513Z,13.81
2019-02-28T11:38:05.132Z,14.26
2019-02-28T11:40:34.663Z,14.14
2019-02-28T11:43:04.671Z,14.82
2019-02-28T11:45:34.295Z,14.49
2019-02-28T11:48:04.360Z,14.39
2019-02-28T11:50:33.510Z,13.99
2019-02-28T11:53:05.793Z,13.76
2019-02-28T11:55:34.014Z,13.76
2019-02-28T11:58:03.154Z,13.53
2019-02-28T12:00:35.735Z,13.34
2019-02-28T12:03:05.570Z,13.18
2019-02-28T12:05:34.954Z,13.16
2019-02-28T12:08:09.206Z,13.38
2019-02-28T12:10:34.933Z,13.44
2019-02-28T12:13:04.289Z,13.97
2019-02-28T12:15:33.445Z,14.40
2019-02-28T12:18:04.730Z,14.09
2019-02-28T12:20:33.572Z,14.15
2019-02-28T12:23:02.627Z,14.05
2019-02-28T12:25:31.670Z,13.93
2019-02-28T12:28:02.751Z,13.69
2019-02-28T12:30:32.256Z,13.66
2019-02-28T12:33:02.100Z,13.44
2019-02-28T12:35:37.425Z,13.34
2019-02-28T12:38:02.436Z,13.35
2019-02-28T12:40:32.310Z,13.33
2019-02-28T12:43:01.392Z,13.05
2019-02-28T12:45:32.841Z,13.03
2019-02-28T12:48:01.904Z,13.19
2019-02-28T12:50:31.385Z,13.35
2019-02-28T12:53:00.440Z,13.32
2019-02-28T12:55:29.480Z,13.38
2019-02-28T12:57:58.682Z,13.29
2019-02-28T13:00:33.608Z,13.39
2019-02-28T13:03:03.033Z,13.44
2019-02-28T13:05:32.736Z,13.41
2019-02-28T13:08:05.801Z,13.41
2019-02-28T13:10:33.064Z,13.55
2019-02-28T13:13:07.115Z,13.62
2019-02-28T13:15:33.247Z,13.57
2019-02-28T13:18:07.611Z,13.37
2019-02-28T13:20:36.268Z,13.27
2019-02-28T13:23:04.569Z,13.06
2019-02-28T13:25:33.976Z,13.18
2019-02-28T13:28:03.430Z,13.12
2019-02-28T13:30:32.918Z,13.19
2019-02-28T13:33:01.931Z,13.23
2019-02-28T13:35:31.982Z,13.03
2019-02-28T13:38:01.373Z,13.08
2019-02-28T13:40:30.390Z,12.97
2019-02-28T13:43:01.667Z,12.97
2019-02-28T13:45:30.261Z,12.92
2019-02-28T13:47:59.327Z,12.92
2019-02-28T13:50:28.780Z,12.95
2019-02-28T13:53:03.462Z,13.05
2019-02-28T13:55:28.595Z,13.01
2019-02-28T13:57:58.516Z,12.90
2019-02-28T14:00:29.415Z,12.91
2019-02-28T14:03:08.964Z,12.87
2019-02-28T14:05:38.498Z,12.92
2019-02-28T14:08:11.204Z,12.93
2019-02-28T14:10:39.085Z,12.98
2019-02-28T14:13:08.485Z,12.81
2019-02-28T14:15:40.456Z,12.81
2019-02-28T14:18:10.959Z,12.76
2019-02-28T14:20:40.296Z,12.80
2019-02-28T14:23:09.348Z,12.93
2019-02-28T14:25:39.668Z,13.11
2019-02-28T14:28:09.400Z,12.99
2019-02-28T14:30:38.442Z,13.15
2019-02-28T14:33:07.571Z,13.14
2019-02-28T14:35:38.662Z,13.17
2019-02-28T14:38:07.733Z,13.31
2019-02-28T14:40:37.259Z,13.28
2019-02-28T14:43:06.671Z,13.16
2019-02-28T14:45:39.209Z,13.13
2019-02-28T14:48:06.999Z,13.13
2019-02-28T14:50:36.057Z,13.10
2019-02-28T14:53:05.505Z,12.96
2019-02-28T14:55:34.549Z,13.02
2019-02-28T14:58:03.730Z,13.09
2019-02-28T15:00:32.847Z,12.94
2019-02-28T15:03:03.031Z,12.89
2019-02-28T15:05:33.758Z,12.91
2019-02-28T15:08:03.863Z,12.82
2019-02-28T15:10:34.193Z,12.87
2019-02-28T15:13:04.894Z,12.89
2019-02-28T15:15:36.276Z,12.79
2019-02-28T15:18:05.725Z,12.69
2019-02-28T15:20:34.774Z,12.49
2019-02-28T15:23:03.894Z,12.38
2019-02-28T15:25:32.926Z,12.21
2019-02-28T15:28:01.974Z,12.15
2019-02-28T15:30:33.668Z,12.13
2019-02-28T15:33:02.846Z,11.90
2019-02-28T15:35:31.940Z,11.83
2019-02-28T15:38:01.127Z,11.60
2019-02-28T15:40:32.615Z,11.59
2019-02-28T15:43:02.020Z,11.61
2019-02-28T15:45:31.422Z,11.54
2019-02-28T15:48:00.796Z,11.41
2019-02-28T15:50:29.873Z,11.42
2019-02-28T15:52:59.576Z,11.22
2019-02-28T15:55:28.774Z,11.17
2019-02-28T15:57:57.786Z,11.06
2019-02-28T16:00:28.774Z,11.10
2019-02-28T16:02:58.099Z,11.00
2019-02-28T16:05:27.547Z,10.99
2019-02-28T16:07:56.839Z,11.12
2019-02-28T16:10:28.522Z,11.06
2019-02-28T16:12:58.502Z,10.90
2019-02-28T16:15:27.666Z,10.84
2019-02-28T16:17:56.717Z,10.98
2019-02-28T16:20:28.731Z,11.03
2019-02-28T16:22:56.538Z,11.12
2019-02-28T16:25:27.759Z,11.09
2019-02-28T16:27:57.193Z,11.07
2019-02-28T16:30:28.670Z,10.95
2019-02-28T16:32:57.084Z,10.86
2019-02-28T16:35:26.097Z,10.77
2019-02-28T16:37:55.220Z,11.02
2019-02-28T16:40:26.993Z,10.97
2019-02-28T16:42:56.149Z,11.16
2019-02-28T16:45:31.957Z,11.26
2019-02-28T16:48:03.362Z,11.30
2019-02-28T16:50:32.431Z,11.28
2019-02-28T16:53:01.488Z,11.14
2019-02-28T16:55:30.959Z,11.33
2019-02-28T16:58:01.140Z,11.35
2019-02-28T17:00:30.260Z,11.41
2019-02-28T17:02:59.414Z,11.37
2019-02-28T17:05:28.509Z,11.44
2019-02-28T17:07:57.800Z,11.41
2019-02-28T17:10:40.279Z,11.29
2019-02-28T17:13:39.781Z,11.15
2019-02-28T17:16:16.392Z,11.12
2019-02-28T17:18:45.456Z,11.21
2019-02-28T17:21:17.863Z,11.20
2019-02-28T17:23:45.446Z,11.28
2019-02-28T17:26:14.507Z,11.26
2019-02-28T17:28:54.698Z,11.32
2019-02-28T17:31:36.023Z,11.28
2019-02-28T17:34:05.089Z,11.42
2019-02-28T17:36:34.111Z,11.39
2019-02-28T17:39:03.238Z,11.38
2019-02-28T17:41:33.902Z,11.36
2019-02-28T17:44:57.772Z,11.38
2019-02-28T17:47:59.274Z,11.36
2019-02-28T17:51:14.987Z,11.28
2019-02-28T17:54:13.735Z,11.33
2019-02-28T17:57:24.082Z,11.34
2019-02-28T18:00:12.906Z,11.32
2019-02-28T18:03:20.418Z,11.32
2019-02-28T18:06:17.370Z,11.35
2019-02-28T18:09:05.655Z,11.38
2019-02-28T18:12:05.960Z,11.32
2019-02-28T18:14:57.054Z,11.27
2019-02-28T18:18:08.802Z,11.20
2019-02-28T18:21:30.279Z,11.01
2019-02-28T18:24:07.362Z,10.85
2019-02-28T18:27:30.313Z,10.81
2019-02-28T18:30:28.146Z,10.97
2019-02-28T18:32:57.200Z,10.79
2019-02-28T18:35:29.166Z,10.81
2019-02-28T18:37:59.868Z,10.65
2019-02-28T18:40:28.294Z,10.90
2019-02-28T18:42:57.739Z,10.86
2019-02-28T18:45:26.850Z,10.58
2019-02-28T18:47:55.887Z,10.72
2019-02-28T18:50:25.115Z,10.75
2019-02-28T18:52:54.311Z,10.60
2019-02-28T18:55:23.434Z,10.55
2019-02-28T18:57:52.499Z,10.57
2019-02-28T19:00:22.559Z,10.64
2019-02-28T19:02:51.660Z,10.56
2019-02-28T19:05:20.754Z,10.45
2019-02-28T19:07:49.838Z,10.40
2019-02-28T19:10:19.524Z,10.66
2019-02-28T19:12:48.918Z,10.65
2019-02-28T19:15:18.090Z,10.50
2019-02-28T19:17:47.243Z,10.44
2019-02-28T19:20:16.272Z,10.62
2019-02-28T19:22:45.604Z,10.74
2019-02-28T19:25:14.900Z,10.57
2019-02-28T19:27:44.325Z,10.64
2019-02-28T19:30:13.735Z,10.60
2019-02-28T19:32:43.067Z,10.43
2019-02-28T19:35:12.142Z,10.44
2019-02-28T19:37:41.164Z,10.51
2019-02-28T19:40:10.520Z,10.67
2019-02-28T19:42:39.585Z,10.64
2019-02-28T19:45:10.860Z,10.75
2019-02-28T19:47:39.960Z,10.65
2019-02-28T19:50:10.206Z,10.67
2019-02-28T19:52:39.261Z,10.56
2019-02-28T19:55:10.096Z,10.61
2019-02-28T19:57:39.464Z,10.67
2019-02-28T20:00:11.345Z,10.50
2019-02-28T20:02:40.685Z,10.77
2019-02-28T20:05:10.282Z,10.78
2019-02-28T20:07:39.351Z,10.69
2019-02-28T20:10:10.923Z,10.65
2019-02-28T20:12:39.983Z,10.83
2019-02-28T20:15:09.968Z,10.63
2019-02-28T20:17:39.292Z,10.65
2019-02-28T20:20:11.532Z,10.85
2019-02-28T20:22:40.936Z,10.88
2019-02-28T20:25:11.187Z,10.90
2019-02-28T20:27:40.295Z,10.93
2019-02-28T20:30:11.881Z,10.85
2019-02-28T20:32:40.979Z,10.87
2019-02-28T20:35:11.167Z,10.85
2019-02-28T20:37:40.650Z,10.93
2019-02-28T20:40:11.543Z,10.78
2019-02-28T20:42:40.557Z,10.78
2019-02-28T20:45:10.271Z,10.90
2019-02-28T20:47:39.586Z,10.91
2019-02-28T20:50:12.703Z,10.86
2019-02-28T20:52:42.109Z,10.81
2019-02-28T20:55:11.457Z,10.79
2019-02-28T20:57:40.563Z,10.80
2019-02-28T21:00:12.493Z,10.74
2019-02-28T21:02:41.735Z,10.77
2019-02-28T21:05:11.129Z,10.73
2019-02-28T21:07:40.287Z,10.89
2019-02-28T21:10:09.683Z,10.77
2019-02-28T21:12:38.781Z,10.67
2019-02-28T21:15:08.821Z,10.66
2019-02-28T21:17:37.951Z,10.67
2019-02-28T21:20:08.358Z,10.68
2019-02-28T21:22:37.719Z,10.59
2019-02-28T21:25:08.887Z,10.79
2019-02-28T21:27:38.177Z,10.83
2019-02-28T21:30:11.315Z,10.78
2019-02-28T21:32:40.671Z,10.75
2019-02-28T21:35:10.627Z,10.75
2019-02-28T21:37:40.061Z,10.61
2019-02-28T21:40:10.208Z,10.68
2019-02-28T21:42:39.243Z,10.81
2019-02-28T21:45:09.410Z,10.74
2019-02-28T21:47:38.489Z,10.68
2019-02-28T21:50:10.173Z,10.72
2019-02-28T21:52:39.237Z,10.80
2019-02-28T21:55:09.841Z,10.74
2019-02-28T21:57:39.257Z,10.68
2019-02-28T22:00:12.023Z,10.79
2019-02-28T22:02:41.029Z,10.67
2019-02-28T22:05:11.760Z,10.68
2019-02-28T22:07:41.155Z,10.63
2019-02-28T22:10:11.194Z,10.68
2019-02-28T22:12:40.316Z,10.62
2019-02-28T22:15:11.961Z,10.49
2019-02-28T22:17:41.542Z,10.44
2019-02-28T22:20:11.650Z,10.42
2019-02-28T22:22:40.744Z,10.41
2019-02-28T22:25:11.327Z,10.51
2019-02-28T22:27:40.404Z,10.42
2019-02-28T22:30:49.328Z,10.42
2019-02-28T22:33:40.879Z,10.43
2019-02-28T22:36:12.648Z,10.43
2019-02-28T22:38:41.669Z,10.48
2019-02-28T22:41:10.777Z,10.41
2019-02-28T22:43:40.162Z,10.44
2019-02-28T22:46:09.201Z,10.40
2019-02-28T22:48:38.309Z,10.41
2019-02-28T22:51:07.389Z,10.55
2019-02-28T22:53:36.590Z,10.55
2019-02-28T22:56:06.090Z,10.42
2019-02-28T22:58:35.157Z,10.55
2019-02-28T23:01:11.520Z,10.67
2019-02-28T23:03:40.990Z,10.61
2019-02-28T23:06:10.411Z,10.60
2019-02-28T23:08:39.427Z,10.46
2019-02-28T23:11:08.852Z,10.53
2019-02-28T23:13:38.275Z,10.41
2019-02-28T23:16:08.093Z,10.51
2019-02-28T23:18:37.145Z,10.45
2019-02-28T23:21:06.336Z,10.47
2019-02-28T23:23:35.384Z,10.55
2019-02-28T23:26:12.960Z,10.54
2019-02-28T23:28:48.275Z,10.54
2019-02-28T23:32:07.673Z,10.63
2019-02-28T23:34:39.485Z,10.58
2019-02-28T23:37:08.950Z,10.53
2019-02-28T23:39:38.297Z,10.60
2019-02-28T23:42:07.852Z,10.62
2019-02-28T23:44:37.194Z,10.53
2019-02-28T23:47:06.406Z,10.50
2019-02-28T23:49:35.771Z,10.44
2019-02-28T23:52:04.822Z,10.40
2019-02-28T23:54:33.894Z,10.35
2019-02-28T23:57:02.964Z,10.29
2019-02-28T23:59:32.024Z,10.33
